Time;durP1;ratioP1;P1;durP2;ratioP2;P2;SDS_P1;SDS_P2;PMS_P1;PMS_P2;Temp;Humidity;BMP_temperature;BMP_pressure;BME280_temperature;BME280_humidity;BME280_pressure;Samples;Min_cycle;Max_cycle;Signal;HPM_P1;HPM_P2
2023/08/17 01:00:35;;;;;;;4.03;3.63;;;18.20;99.90;;;;;;4825813;29;20223;-47
2023/08/17 01:03:00;;;;;;;4.00;3.60;;;18.20;99.90;;;;;;4827099;29;20228;-46
2023/08/17 01:05:26;;;;;;;5.03;4.00;;;18.20;99.90;;;;;;4827252;29;20337;-47
2023/08/17 01:07:52;;;;;;;3.93;3.53;;;18.20;99.90;;;;;;4827002;29;20204;-47
2023/08/17 01:10:19;;;;;;;5.63;3.77;;;18.20;99.90;;;;;;4810553;29;20661;-47
2023/08/17 01:12:54;;;;;;;5.27;3.90;;;18.20;99.90;;;;;;4827004;29;20192;-48
2023/08/17 01:15:33;;;;;;;5.93;3.70;;;18.20;99.90;;;;;;4827161;29;20168;-47
2023/08/17 01:18:24;;;;;;;4.47;4.07;;;18.20;99.90;;;;;;4826772;29;20218;-48
2023/08/17 01:20:52;;;;;;;5.93;4.23;;;18.20;99.90;;;;;;4826842;29;20652;-46
2023/08/17 01:23:18;;;;;;;4.80;4.27;;;18.20;99.90;;;;;;4826828;29;20226;-46
2023/08/17 01:25:44;;;;;;;5.77;4.67;;;18.10;99.90;;;;;;4826576;29;20181;-48
2023/08/17 01:28:10;;;;;;;5.03;4.53;;;18.10;99.90;;;;;;4827213;29;20192;-46
2023/08/17 01:31:08;;;;;;;5.70;4.63;;;18.20;99.90;;;;;;4826943;29;20199;-48
2023/08/17 01:33:52;;;;;;;5.47;4.77;;;18.10;99.90;;;;;;4826850;29;20541;-48
2023/08/17 01:36:21;;;;;;;5.37;4.87;;;18.20;99.90;;;;;;4796411;29;20223;-47
2023/08/17 01:38:50;;;;;;;6.10;5.50;;;18.20;99.90;;;;;;4826533;29;20200;-48
2023/08/17 01:41:17;;;;;;;5.57;4.90;;;18.20;99.90;;;;;;4826992;29;20193;-48
2023/08/17 01:43:45;;;;;;;7.30;5.50;;;18.20;99.90;;;;;;4826436;29;20295;-47
2023/08/17 01:46:17;;;;;;;5.77;5.23;;;18.10;99.90;;;;;;4809941;29;20261;-47
2023/08/17 01:48:46;;;;;;;5.40;4.90;;;18.10;99.90;;;;;;4825988;29;20615;-46
2023/08/17 01:51:21;;;;;;;5.90;4.97;;;18.10;99.90;;;;;;4826532;29;20671;-48
2023/08/17 01:53:48;;;;;;;6.20;4.90;;;18.10;99.90;;;;;;4810758;29;20227;-47
2023/08/17 01:56:16;;;;;;;5.37;4.70;;;18.10;99.90;;;;;;4809963;29;20689;-46
2023/08/17 01:58:43;;;;;;;6.87;4.43;;;18.10;99.90;;;;;;4810369;29;20231;-47
2023/08/17 02:01:08;;;;;;;5.53;4.93;;;18.00;99.90;;;;;;4826593;29;20256;-47
2023/08/17 02:03:36;;;;;;;8.73;4.50;;;18.00;99.90;;;;;;4826106;29;20686;-48
2023/08/17 02:06:04;;;;;;;6.30;4.93;;;18.00;99.90;;;;;;4826351;29;20232;-47
2023/08/17 02:08:33;;;;;;;5.40;4.40;;;18.00;99.90;;;;;;4809987;29;20253;-47
2023/08/17 02:10:59;;;;;;;5.43;4.40;;;18.00;99.90;;;;;;4826068;29;20196;-47
2023/08/17 02:13:27;;;;;;;5.27;4.47;;;18.00;99.90;;;;;;4825959;29;20196;-46
2023/08/17 02:15:53;;;;;;;4.70;4.20;;;18.00;99.90;;;;;;4825875;29;20208;-47
2023/08/17 02:18:20;;;;;;;6.50;4.57;;;17.90;99.90;;;;;;4809510;29;20199;-48
2023/08/17 02:20:46;;;;;;;5.47;4.50;;;17.90;99.90;;;;;;4826075;29;20536;-48
2023/08/17 02:23:13;;;;;;;4.43;4.03;;;17.90;99.90;;;;;;4825833;29;20254;-47
2023/08/17 02:25:43;;;;;;;4.93;4.43;;;17.90;99.90;;;;;;4809617;29;20212;-48
2023/08/17 02:28:09;;;;;;;6.00;4.90;;;17.90;99.90;;;;;;4794459;29;20223;-48
2023/08/17 02:30:35;;;;;;;5.30;4.80;;;17.90;99.90;;;;;;4826001;29;20193;-47
2023/08/17 02:33:01;;;;;;;7.47;5.47;;;17.90;99.90;;;;;;4825777;29;20253;-47
2023/08/17 02:35:27;;;;;;;6.73;5.27;;;17.90;99.90;;;;;;4809490;29;20219;-47
2023/08/17 02:37:53;;;;;;;7.83;5.90;;;17.90;99.90;;;;;;4826022;29;20285;-47
2023/08/17 02:40:19;;;;;;;6.83;5.50;;;17.90;99.90;;;;;;4809182;29;20668;-47
2023/08/17 02:42:45;;;;;;;10.77;5.90;;;17.90;99.90;;;;;;4809080;29;20196;-47
2023/08/17 02:45:11;;;;;;;7.00;5.67;;;17.80;99.90;;;;;;4825785;29;20208;-47
2023/08/17 02:47:43;;;;;;;7.43;5.70;;;17.80;99.90;;;;;;4826032;29;20212;-47
2023/08/17 02:50:09;;;;;;;8.43;6.00;;;17.80;99.90;;;;;;4809908;29;20662;-47
2023/08/17 02:52:35;;;;;;;7.60;5.63;;;17.80;99.90;;;;;;4825714;29;20192;-47
2023/08/17 02:55:02;;;;;;;6.80;5.70;;;17.80;99.90;;;;;;4808994;29;20197;-47
2023/08/17 02:57:28;;;;;;;10.17;5.30;;;17.80;99.90;;;;;;4825347;29;20254;-47
2023/08/17 02:59:53;;;;;;;6.73;5.60;;;17.80;99.90;;;;;;4808041;29;20231;-49
2023/08/17 03:02:19;;;;;;;7.83;5.33;;;17.80;99.90;;;;;;4809616;29;20193;-46
2023/08/17 03:04:45;;;;;;;7.57;5.30;;;17.80;99.90;;;;;;4825613;29;20223;-46
2023/08/17 03:07:12;;;;;;;6.97;5.57;;;17.80;99.90;;;;;;4825181;29;20218;-48
2023/08/17 03:09:37;;;;;;;6.87;5.63;;;17.80;99.90;;;;;;4825794;29;20187;-47
2023/08/17 03:12:03;;;;;;;7.87;5.57;;;17.70;99.90;;;;;;4808844;29;20196;-46
2023/08/17 03:14:30;;;;;;;6.63;5.97;;;17.70;99.90;;;;;;4808785;29;20204;-49
2023/08/17 03:16:56;;;;;;;7.23;5.17;;;17.70;99.90;;;;;;4809054;29;20220;-47
2023/08/17 03:19:22;;;;;;;6.73;5.60;;;17.70;99.90;;;;;;4825132;29;20212;-48
2023/08/17 03:21:48;;;;;;;6.67;5.40;;;17.70;99.90;;;;;;4808619;29;20679;-47
2023/08/17 03:24:15;;;;;;;8.23;5.03;;;17.70;99.90;;;;;;4808504;29;20311;-48
2023/08/17 03:26:41;;;;;;;8.57;5.53;;;17.60;99.90;;;;;;4825297;29;20587;-48
2023/08/17 03:29:09;;;;;;;7.93;5.00;;;17.60;99.90;;;;;;4825535;29;20200;-48
2023/08/17 03:31:42;;;;;;;7.43;4.80;;;17.60;99.90;;;;;;4808551;29;20200;-47
2023/08/17 03:34:09;;;;;;;7.90;5.30;;;17.60;99.90;;;;;;4824053;29;20200;-47
2023/08/17 03:36:50;;;;;;;6.63;4.73;;;17.50;99.90;;;;;;4825105;29;20208;-45
2023/08/17 03:39:21;;;;;;;6.67;4.43;;;17.50;99.90;;;;;;4780895;29;20561;-43
2023/08/17 03:41:48;;;;;;;6.03;5.30;;;17.50;99.90;;;;;;4826434;29;20185;-43
2023/08/17 03:44:19;;;;;;;10.97;5.07;;;17.50;99.90;;;;;;4826535;29;20224;-43
2023/08/17 03:46:50;;;;;;;9.40;6.00;;;17.50;99.90;;;;;;4808471;29;20223;-43
2023/08/17 03:49:19;;;;;;;8.17;5.43;;;17.50;99.90;;;;;;4794022;29;20700;-43
2023/08/17 03:51:49;;;;;;;6.83;6.00;;;17.50;99.90;;;;;;4823911;29;20611;-45
2023/08/17 03:54:23;;;;;;;8.23;5.17;;;17.50;99.90;;;;;;4808261;29;20708;-44
2023/08/17 03:56:58;;;;;;;9.13;5.90;;;17.50;99.90;;;;;;4824888;29;20285;-41
2023/08/17 03:59:35;;;;;;;16.37;6.97;;;17.50;99.90;;;;;;4809355;29;20570;-43
2023/08/17 04:02:18;;;;;;;8.60;5.93;;;17.50;99.90;;;;;;4808552;29;20605;-42
2023/08/17 04:04:51;;;;;;;9.90;6.07;;;17.50;99.90;;;;;;4808171;29;20246;-42
2023/08/17 04:07:50;;;;;;;11.17;6.50;;;17.50;99.90;;;;;;4794926;29;20307;-43
2023/08/17 05:02:58;;;;;;;12.57;9.70;;;17.30;99.90;;;;;;4827892;29;20207;-43
2023/08/17 05:05:32;;;;;;;12.83;9.87;;;17.30;99.90;;;;;;4811489;29;20200;-41
2023/08/17 05:07:59;;;;;;;15.90;10.23;;;17.30;99.90;;;;;;4810852;29;20219;-44
2023/08/17 05:10:31;;;;;;;12.40;9.47;;;17.20;99.90;;;;;;4827046;29;20192;-42
2023/08/17 05:12:58;;;;;;;14.50;10.00;;;17.20;99.90;;;;;;4825798;29;20200;-41
2023/08/17 05:15:30;;;;;;;12.90;9.13;;;17.30;99.90;;;;;;4810849;29;20689;-44
2023/08/17 05:17:57;;;;;;;15.43;10.50;;;17.20;99.90;;;;;;4795616;29;20757;-43
2023/08/17 05:20:24;;;;;;;17.20;11.30;;;17.30;99.90;;;;;;4810743;29;20200;-43
2023/08/17 05:22:51;;;;;;;12.90;11.10;;;17.20;99.90;;;;;;4809769;29;20255;-45
2023/08/17 05:25:21;;;;;;;13.93;10.83;;;17.30;99.90;;;;;;4795737;29;20600;-43
2023/08/17 05:27:49;;;;;;;15.13;10.90;;;17.20;99.90;;;;;;4810410;29;20219;-42
2023/08/17 05:30:16;;;;;;;19.43;11.17;;;17.20;99.90;;;;;;4810399;29;20192;-43
2023/08/17 05:32:43;;;;;;;20.10;11.53;;;17.20;99.90;;;;;;4826698;29;20220;-43
2023/08/17 05:35:17;;;;;;;13.23;11.07;;;17.20;99.90;;;;;;4810318;29;20579;-43
2023/08/17 05:37:44;;;;;;;14.17;10.70;;;17.20;99.90;;;;;;4795639;29;20223;-43
2023/08/17 05:40:12;;;;;;;19.23;11.10;;;17.20;99.90;;;;;;4810345;29;20192;-42
2023/08/17 05:42:39;;;;;;;14.60;12.00;;;17.30;99.90;;;;;;4826339;29;20618;-40
2023/08/17 05:45:09;;;;;;;16.00;11.57;;;17.30;99.90;;;;;;4810266;29;20216;-43
2023/08/17 05:47:35;;;;;;;16.27;11.53;;;17.20;99.90;;;;;;4812018;29;20215;-43
2023/08/17 05:50:01;;;;;;;17.20;11.87;;;17.20;99.90;;;;;;4795039;29;20192;-43
2023/08/17 05:52:26;;;;;;;15.33;11.37;;;17.20;99.90;;;;;;4810141;29;20199;-42
2023/08/17 05:54:52;;;;;;;15.70;12.00;;;17.20;99.90;;;;;;4826376;29;20561;-42
2023/08/17 05:57:18;;;;;;;19.30;12.40;;;17.30;99.90;;;;;;4826330;29;20797;-42
2023/08/17 05:59:43;;;;;;;16.70;11.40;;;17.30;99.90;;;;;;4826629;29;20196;-42
2023/08/17 06:02:09;;;;;;;17.87;11.43;;;17.30;99.90;;;;;;4826047;29;20567;-44
2023/08/17 06:04:35;;;;;;;15.23;11.83;;;17.30;99.90;;;;;;4810500;29;20219;-44
2023/08/17 06:07:00;;;;;;;22.40;12.03;;;17.30;99.90;;;;;;4826116;29;20212;-42
2023/08/17 06:09:26;;;;;;;15.83;12.53;;;17.30;99.90;;;;;;4826957;29;20235;-43
2023/08/17 06:11:52;;;;;;;18.33;11.93;;;17.30;99.90;;;;;;4826167;29;20185;-45
2023/08/17 06:14:18;;;;;;;16.53;10.57;;;17.30;99.90;;;;;;4809997;29;20378;-42
2023/08/17 06:16:44;;;;;;;15.63;11.10;;;17.40;99.90;;;;;;4825965;29;20223;-43
2023/08/17 06:19:10;;;;;;;13.37;10.77;;;17.30;99.90;;;;;;4826198;29;20238;-44
2023/08/17 06:21:37;;;;;;;15.30;10.93;;;17.40;99.90;;;;;;4809583;29;20279;-44
2023/08/17 06:24:03;;;;;;;13.27;10.37;;;17.40;99.90;;;;;;4809556;29;20716;-43
2023/08/17 06:26:28;;;;;;;18.00;10.53;;;17.50;99.90;;;;;;4809363;29;20216;-42
2023/08/17 06:28:56;;;;;;;15.77;12.07;;;17.50;99.90;;;;;;4825893;29;20200;-43
2023/08/17 06:31:27;;;;;;;18.30;12.47;;;17.50;99.90;;;;;;4809861;29;20314;-44
2023/08/17 06:33:53;;;;;;;16.13;10.87;;;17.50;99.90;;;;;;4824704;29;20697;-45
2023/08/17 06:36:19;;;;;;;16.30;12.07;;;17.50;99.90;;;;;;4809264;29;20224;-42
2023/08/17 06:38:45;;;;;;;18.20;12.00;;;17.50;99.90;;;;;;4825746;29;20554;-43
2023/08/17 06:41:18;;;;;;;19.13;12.73;;;17.50;99.90;;;;;;4810211;29;20196;-49
2023/08/17 06:43:43;;;;;;;18.60;11.93;;;17.60;99.90;;;;;;4810299;29;20216;-47
2023/08/17 06:46:17;;;;;;;19.53;12.40;;;17.60;99.90;;;;;;4811097;29;20219;-44
2023/08/17 06:48:43;;;;;;;20.70;12.30;;;17.60;99.90;;;;;;4826411;29;20233;-44
2023/08/17 06:51:09;;;;;;;16.40;11.83;;;17.60;99.90;;;;;;4826713;29;20271;-45
2023/08/17 06:53:45;;;;;;;16.23;12.40;;;17.60;99.90;;;;;;4810091;29;20250;-47
2023/08/17 06:56:18;;;;;;;15.73;11.77;;;17.60;99.90;;;;;;4826584;29;20212;-48
2023/08/17 06:58:50;;;;;;;12.70;10.93;;;17.70;99.90;;;;;;4810098;29;20200;-48
2023/08/17 07:01:21;;;;;;;18.13;11.80;;;17.70;99.90;;;;;;4809969;29;20204;-48
2023/08/17 07:03:50;;;;;;;19.50;12.40;;;17.70;99.90;;;;;;4810280;29;20247;-48
2023/08/17 07:06:16;;;;;;;15.87;11.93;;;17.80;99.90;;;;;;4826290;29;20208;-48
2023/08/17 07:08:41;;;;;;;16.67;12.13;;;17.80;99.90;;;;;;4809904;29;20291;-42
2023/08/17 07:11:17;;;;;;;15.73;11.50;;;17.80;99.90;;;;;;4810190;29;20188;-50
2023/08/17 07:13:49;;;;;;;16.73;11.70;;;17.80;99.90;;;;;;4809972;29;20196;-44
2023/08/17 07:16:15;;;;;;;17.30;11.47;;;17.80;99.90;;;;;;4826591;29;20227;-47
2023/08/17 07:18:40;;;;;;;15.73;11.13;;;17.80;99.90;;;;;;4826427;29;20192;-42
2023/08/17 07:21:06;;;;;;;15.33;10.63;;;17.90;99.90;;;;;;4826250;29;20184;-43
2023/08/17 07:23:54;;;;;;;16.37;10.80;;;17.90;99.90;;;;;;4809587;29;20220;-49
2023/08/17 07:26:28;;;;;;;22.93;11.13;;;18.00;99.90;;;;;;4809685;29;20235;-49
2023/08/17 10:39:49;;;;;;;23.60;18.97;;;19.70;99.90;;;;;;3212525;27;20232;-48
2023/08/17 10:42:16;;;;;;;24.47;20.23;;;19.80;99.90;;;;;;4825987;29;20184;-48
2023/08/17 10:44:48;;;;;;;21.53;17.93;;;19.80;99.90;;;;;;4809479;29;20231;-48
2023/08/17 10:47:37;;;;;;;21.43;17.90;;;19.80;99.90;;;;;;4810926;29;20220;-50
2023/08/17 10:50:32;;;;;;;21.03;15.93;;;19.90;99.90;;;;;;4810019;29;20582;-49
2023/08/17 11:10:31;;;;;;;16.43;14.53;;;20.00;99.90;;;;;;4826721;29;20192;-48
2023/08/17 11:54:16;;;;;;;17.03;12.60;;;20.50;99.90;;;;;;4824772;29;20622;-44
2023/08/17 11:56:41;;;;;;;15.17;11.70;;;20.50;99.90;;;;;;4825106;29;20212;-44
2023/08/17 11:59:13;;;;;;;15.50;11.40;;;20.60;99.90;;;;;;4826050;29;20196;-43
2023/08/17 12:01:40;;;;;;;16.93;10.93;;;20.60;99.90;;;;;;4808107;29;20211;-42
2023/08/17 12:04:07;;;;;;;20.03;12.07;;;20.60;99.90;;;;;;4824711;29;20227;-42
2023/08/17 12:06:33;;;;;;;15.17;12.23;;;20.60;99.90;;;;;;4824567;29;20216;-43
2023/08/17 12:08:59;;;;;;;20.00;12.40;;;20.70;99.90;;;;;;4808257;29;20196;-43
2023/08/17 12:11:25;;;;;;;17.90;13.20;;;20.60;99.90;;;;;;4808265;29;20268;-44
2023/08/17 12:13:53;;;;;;;17.10;13.07;;;20.60;99.90;;;;;;4824461;29;20220;-44
2023/08/17 12:16:22;;;;;;;17.03;13.20;;;20.60;99.90;;;;;;4824428;29;20292;-44
2023/08/17 12:18:49;;;;;;;17.37;13.33;;;20.60;99.90;;;;;;4808125;29;20212;-45
2023/08/17 12:21:16;;;;;;;17.70;13.87;;;20.60;99.90;;;;;;4824597;29;20200;-45
2023/08/17 12:27:06;;;;;;;17.30;14.07;;;20.60;99.90;;;;;;4824592;29;20239;-43
2023/08/17 12:29:32;;;;;;;17.97;13.67;;;20.70;99.90;;;;;;4824387;29;20340;-44
2023/08/17 12:31:59;;;;;;;18.33;14.43;;;20.70;99.90;;;;;;4810057;29;20272;-41
2023/08/17 12:34:25;;;;;;;20.37;14.03;;;20.70;99.90;;;;;;4828324;29;20200;-43
2023/08/17 12:36:51;;;;;;;18.60;14.53;;;20.80;99.90;;;;;;4811694;29;20224;-44
2023/08/17 12:39:46;;;;;;;19.63;14.50;;;20.80;99.90;;;;;;4812447;29;20279;-49
2023/08/17 12:42:16;;;;;;;19.67;13.20;;;20.80;99.90;;;;;;4826043;29;20633;-45
2023/08/17 12:45:02;;;;;;;22.60;14.37;;;20.80;99.90;;;;;;4797525;29;20227;-50
2023/08/17 12:47:28;;;;;;;21.63;15.67;;;20.80;99.90;;;;;;4828753;29;20305;-44
2023/08/17 12:49:53;;;;;;;19.50;14.10;;;21.00;99.90;;;;;;4811336;29;20646;-49
2023/08/17 12:52:19;;;;;;;17.63;13.63;;;21.00;99.90;;;;;;4827164;29;20208;-48
2023/08/17 12:54:44;;;;;;;17.97;14.27;;;21.10;99.90;;;;;;4827491;29;20200;-49
2023/08/17 12:57:16;;;;;;;18.87;14.60;;;21.10;99.90;;;;;;4827174;29;20291;-49
2023/08/17 13:06:31;;;;;;;23.30;16.13;;;21.10;99.90;;;;;;4827173;29;20236;-49
2023/08/17 13:08:57;;;;;;;22.77;17.23;;;21.20;99.90;;;;;;4827701;29;20234;-49
2023/08/17 13:11:23;;;;;;;21.23;16.23;;;21.30;99.90;;;;;;4826958;29;20193;-49
2023/08/17 13:13:49;;;;;;;29.63;17.10;;;21.40;99.90;;;;;;4826939;29;20200;-49
2023/08/17 13:16:15;;;;;;;22.17;16.13;;;21.50;99.90;;;;;;4810840;29;20308;-48
2023/08/17 13:18:41;;;;;;;22.30;16.07;;;21.60;99.90;;;;;;4827168;29;20211;-48
2023/08/17 13:21:07;;;;;;;18.50;14.50;;;21.60;99.90;;;;;;4810584;29;20576;-48
2023/08/17 13:23:32;;;;;;;21.63;15.43;;;21.70;99.90;;;;;;4810360;29;20767;-49
2023/08/17 13:25:58;;;;;;;19.90;15.77;;;21.80;99.90;;;;;;4826635;29;20200;-49
2023/08/17 13:28:24;;;;;;;21.90;17.20;;;21.90;99.90;;;;;;4826797;29;20193;-50
2023/08/17 13:30:50;;;;;;;27.37;18.17;;;22.10;99.90;;;;;;4826746;29;20258;-49
2023/08/17 13:33:16;;;;;;;27.00;16.83;;;22.20;99.90;;;;;;4810415;29;20203;-49
2023/08/17 13:35:43;;;;;;;24.37;17.60;;;22.20;99.90;;;;;;4826559;29;20786;-49
2023/08/17 13:38:08;;;;;;;24.40;18.27;;;22.30;99.90;;;;;;4810309;29;20780;-50
2023/08/17 13:40:56;;;;;;;22.27;17.20;;;22.40;99.90;;;;;;4827002;29;20188;-44
2023/08/17 13:43:27;;;;;;;23.90;16.87;;;22.30;99.90;;;;;;4810240;29;20275;-44
2023/08/17 13:46:04;;;;;;;29.50;17.50;;;22.20;99.90;;;;;;4796539;29;20188;-43
2023/08/17 13:48:29;;;;;;;22.17;18.60;;;22.20;99.90;;;;;;4796620;29;20237;-49
2023/08/17 13:50:55;;;;;;;27.53;18.70;;;22.00;99.90;;;;;;4826695;29;20279;-48
2023/08/17 13:53:21;;;;;;;26.23;18.63;;;21.80;99.90;;;;;;4826568;29;20211;-48
2023/08/17 13:55:47;;;;;;;31.17;18.33;;;21.70;99.90;;;;;;4810100;29;20568;-49
2023/08/17 13:58:12;;;;;;;29.40;19.10;;;21.60;99.90;;;;;;4826439;29;20248;-48
2023/08/17 14:00:38;;;;;;;26.43;19.27;;;21.50;99.90;;;;;;4826362;29;20180;-49
2023/08/17 14:03:06;;;;;;;27.87;18.03;;;21.50;99.90;;;;;;4826377;29;20245;-48
2023/08/17 14:05:32;;;;;;;25.30;18.23;;;21.50;99.90;;;;;;4826394;29;20264;-48
2023/08/17 14:07:58;;;;;;;26.67;19.53;;;21.60;99.90;;;;;;4810173;29;20243;-49
2023/08/17 14:10:25;;;;;;;25.17;18.30;;;21.80;99.90;;;;;;4809841;29;20226;-50
2023/08/17 14:12:51;;;;;;;26.67;18.57;;;21.90;99.90;;;;;;4826405;29;20649;-49
2023/08/17 14:15:17;;;;;;;27.90;20.43;;;22.00;99.90;;;;;;4810480;29;20560;-49
2023/08/17 14:17:43;;;;;;;25.93;19.37;;;22.10;99.90;;;;;;4825980;29;20268;-49
2023/08/17 14:20:09;;;;;;;26.90;19.70;;;22.10;99.90;;;;;;4810283;29;20195;-49
2023/08/17 14:22:39;;;;;;;27.63;19.83;;;22.10;99.90;;;;;;4809996;29;20219;-49
2023/08/17 14:25:08;;;;;;;28.67;19.17;;;22.20;99.90;;;;;;4809959;29;20307;-50
2023/08/17 14:27:33;;;;;;;22.37;18.40;;;22.20;99.90;;;;;;4809665;29;20677;-49
2023/08/17 14:30:12;;;;;;;26.97;18.77;;;22.20;99.90;;;;;;4826442;29;20231;-50
2023/08/17 14:39:36;;;;;;;25.77;18.43;;;22.30;99.90;;;;;;4806164;29;20188;-48
2023/08/17 14:42:05;;;;;;;23.30;15.67;;;22.30;99.90;;;;;;4800210;29;20215;-48
2023/08/17 14:44:32;;;;;;;24.63;18.17;;;22.40;99.90;;;;;;4809615;29;20254;-50
2023/08/17 14:46:58;;;;;;;22.30;16.73;;;22.40;99.90;;;;;;4827295;29;20236;-50
2023/08/17 14:49:24;;;;;;;18.90;16.00;;;22.60;99.90;;;;;;4826043;29;20577;-49
2023/08/17 14:51:50;;;;;;;21.70;15.63;;;22.70;99.90;;;;;;4809040;29;20196;-49
2023/08/17 14:54:16;;;;;;;19.77;15.33;;;22.70;99.90;;;;;;4808258;29;20276;-50
2023/08/17 14:56:42;;;;;;;18.33;14.63;;;22.80;99.90;;;;;;4825108;29;20481;-51
2023/08/17 14:59:08;;;;;;;20.23;15.90;;;22.80;99.90;;;;;;4809062;29;20207;-49
2023/08/17 15:01:33;;;;;;;23.57;15.73;;;22.80;99.90;;;;;;4825250;29;20196;-50
2023/08/17 15:03:59;;;;;;;19.63;16.17;;;22.70;99.90;;;;;;4808755;29;20224;-49
2023/08/17 15:06:25;;;;;;;18.47;15.43;;;22.70;99.90;;;;;;4825200;29;20368;-51
2023/08/17 15:08:51;;;;;;;19.27;15.77;;;22.60;99.90;;;;;;4809077;29;20196;-51
2023/08/17 15:11:16;;;;;;;20.17;17.23;;;22.60;99.90;;;;;;4825199;29;20192;-50
2023/08/17 15:13:43;;;;;;;20.87;16.83;;;22.60;99.90;;;;;;4825327;29;20287;-49
2023/08/17 15:16:10;;;;;;;21.20;16.30;;;22.50;99.90;;;;;;4825308;29;20247;-49
2023/08/17 15:18:35;;;;;;;20.37;15.87;;;22.50;99.90;;;;;;4825349;29;20596;-50
2023/08/17 15:21:01;;;;;;;21.37;14.57;;;22.60;99.90;;;;;;4825218;29;20251;-49
2023/08/17 15:23:27;;;;;;;25.77;15.93;;;22.60;99.90;;;;;;4825013;29;20537;-49
2023/08/17 15:25:53;;;;;;;18.43;16.07;;;22.60;99.90;;;;;;4825128;29;20192;-49
2023/08/17 15:28:19;;;;;;;18.17;14.97;;;22.70;99.90;;;;;;4824905;29;20218;-50
2023/08/17 15:30:44;;;;;;;18.93;16.80;;;22.80;99.90;;;;;;4808364;29;20252;-50
2023/08/17 15:33:11;;;;;;;17.27;15.30;;;22.80;99.90;;;;;;4825164;29;20195;-50
2023/08/17 15:35:36;;;;;;;18.63;14.00;;;22.90;99.90;;;;;;4825136;29;20274;-50
2023/08/17 15:38:02;;;;;;;17.73;14.47;;;22.90;99.90;;;;;;4808353;29;20266;-50
2023/08/17 15:40:28;;;;;;;15.70;14.00;;;22.90;99.90;;;;;;4824765;29;20204;-50
2023/08/17 15:42:54;;;;;;;15.97;14.37;;;23.00;99.90;;;;;;4808155;29;20208;-49
2023/08/17 15:45:20;;;;;;;19.03;15.03;;;23.00;99.90;;;;;;4824761;29;20333;-51
2023/08/17 15:47:47;;;;;;;16.07;14.10;;;23.00;99.90;;;;;;4810203;29;20212;-46
2023/08/17 15:50:14;;;;;;;19.20;16.80;;;22.90;99.90;;;;;;4808645;29;20196;-45
2023/08/17 15:52:40;;;;;;;17.70;15.20;;;23.00;99.90;;;;;;4808345;29;20211;-45
2023/08/17 15:55:08;;;;;;;18.27;16.37;;;22.90;99.90;;;;;;4824980;29;20272;-44
2023/08/17 16:25:23;;;;;;;23.17;18.40;;;22.30;99.90;;;;;;4828664;29;20231;-44
2023/08/17 16:27:49;;;;;;;24.43;18.93;;;22.30;99.90;;;;;;4828901;29;20219;-49
2023/08/17 16:46:18;;;;;;;26.30;20.83;;;22.00;99.90;;;;;;4827625;29;20261;-50
2023/08/17 16:49:12;;;;;;;28.60;21.30;;;22.00;99.90;;;;;;4827812;29;20215;-49
2023/08/17 16:51:44;;;;;;;29.57;22.03;;;21.90;99.90;;;;;;4828437;29;20696;-43
2023/08/17 16:54:29;;;;;;;26.90;22.50;;;21.80;99.90;;;;;;4811354;29;20606;-44
2023/08/17 17:04:36;;;;;;;29.63;21.00;;;21.60;99.90;;;;;;4827836;29;20723;-44
2023/08/17 17:07:32;;;;;;;26.17;21.73;;;21.60;99.90;;;;;;4789280;30;20210;-45
2023/08/17 17:17:13;;;;;;;27.83;21.87;;;21.50;99.90;;;;;;4826959;29;20196;-43
2023/08/17 17:19:49;;;;;;;24.80;21.50;;;21.40;99.90;;;;;;4826629;29;20257;-43
